Terminal Aerodrome Forecast
Issued by NWS Charleston, WV

Current Version | Previous Version | Graphics & Text | Print | Product List | Glossary On
Versions: 1 2 3 4 5 6 7 8 9 10 11 12 13 14 15 16 17 18 19 20 21 22 23 24
000
FTUS41 KRLX 271120
TAFPKB
TAF
KPKB 271120Z 2712/2812 16006KT P6SM SCT250
     FM271600 19010G22KT P6SM BKN050
      TEMPO 2716/2718 4SM SHRA OVC025
     FM271800 19009G16KT P6SM VCTS OVC050CB
      TEMPO 2718/2721 4SM SHRA OVC025
     FM272100 22009G15KT P6SM BKN035
     FM280600 00000KT P6SM SCT250=

USA.gov is the U.S. government's official web portal to all federal, state and local government web resources and services.